sensor_id;sensor_type;location;lat;lon;timestamp;P1;durP1;ratioP1;P2;durP2;ratioP2
15474;SDS011;7839;50.462;9.678;2023-03-01T00:06:37;1.70;;;1.53;;
15474;SDS011;7839;50.462;9.678;2023-03-01T00:13:17;1.20;;;1.20;;
15474;SDS011;7839;50.462;9.678;2023-03-01T00:19:58;10.77;;;8.10;;
15474;SDS011;7839;50.462;9.678;2023-03-01T00:26:39;4.93;;;4.50;;
15474;SDS011;7839;50.462;9.678;2023-03-01T00:33:19;1.40;;;1.30;;
15474;SDS011;7839;50.462;9.678;2023-03-01T00:40:00;1.73;;;1.60;;
15474;SDS011;7839;50.462;9.678;2023-03-01T00:46:40;1.60;;;1.50;;
15474;SDS011;7839;50.462;9.678;2023-03-01T00:53:20;1.03;;;1.00;;
15474;SDS011;7839;50.462;9.678;2023-03-01T01:00:00;1.10;;;1.10;;
15474;SDS011;7839;50.462;9.678;2023-03-01T01:06:42;1.27;;;1.20;;
15474;SDS011;7839;50.462;9.678;2023-03-01T01:13:23;1.50;;;1.40;;
15474;SDS011;7839;50.462;9.678;2023-03-01T01:20:04;1.27;;;1.17;;
15474;SDS011;7839;50.462;9.678;2023-03-01T01:26:45;1.43;;;1.33;;
15474;SDS011;7839;50.462;9.678;2023-03-01T01:33:27;4.23;;;3.80;;
15474;SDS011;7839;50.462;9.678;2023-03-01T01:40:09;1.30;;;1.20;;
15474;SDS011;7839;50.462;9.678;2023-03-01T01:46:53;11.43;;;8.47;;
15474;SDS011;7839;50.462;9.678;2023-03-01T01:53:33;5.40;;;3.77;;
15474;SDS011;7839;50.462;9.678;2023-03-01T02:00:16;6.23;;;5.67;;
15474;SDS011;7839;50.462;9.678;2023-03-01T02:06:58;5.77;;;4.57;;
15474;SDS011;7839;50.462;9.678;2023-03-01T02:13:40;6.70;;;6.00;;
15474;SDS011;7839;50.462;9.678;2023-03-01T02:20:23;2.00;;;1.90;;
15474;SDS011;7839;50.462;9.678;2023-03-01T02:27:05;9.93;;;8.47;;
15474;SDS011;7839;50.462;9.678;2023-03-01T02:33:45;11.07;;;8.00;;
15474;SDS011;7839;50.462;9.678;2023-03-01T02:40:28;7.57;;;6.30;;
15474;SDS011;7839;50.462;9.678;2023-03-01T02:47:09;12.67;;;9.87;;
15474;SDS011;7839;50.462;9.678;2023-03-01T03:00:37;7.87;;;7.03;;
15474;SDS011;7839;50.462;9.678;2023-03-01T03:07:19;4.43;;;3.87;;
15474;SDS011;7839;50.462;9.678;2023-03-01T03:14:00;2.90;;;2.70;;
15474;SDS011;7839;50.462;9.678;2023-03-01T03:20:40;6.30;;;5.35;;
15474;SDS011;7839;50.462;9.678;2023-03-01T03:27:21;2.33;;;2.13;;
15474;SDS011;7839;50.462;9.678;2023-03-01T03:34:01;2.73;;;2.47;;
15474;SDS011;7839;50.462;9.678;2023-03-01T03:40:48;2.33;;;2.13;;
15474;SDS011;7839;50.462;9.678;2023-03-01T03:47:29;1.90;;;1.80;;
15474;SDS011;7839;50.462;9.678;2023-03-01T03:54:10;7.00;;;6.30;;
15474;SDS011;7839;50.462;9.678;2023-03-01T04:00:52;1.90;;;1.80;;
15474;SDS011;7839;50.462;9.678;2023-03-01T04:07:33;1.70;;;1.60;;
15474;SDS011;7839;50.462;9.678;2023-03-01T04:14:13;2.13;;;1.70;;
15474;SDS011;7839;50.462;9.678;2023-03-01T04:20:53;2.23;;;1.70;;
15474;SDS011;7839;50.462;9.678;2023-03-01T04:27:35;4.40;;;4.00;;
15474;SDS011;7839;50.462;9.678;2023-03-01T04:34:16;2.37;;;1.37;;
15474;SDS011;7839;50.462;9.678;2023-03-01T04:40:57;8.53;;;7.60;;
15474;SDS011;7839;50.462;9.678;2023-03-01T04:47:38;1.50;;;1.40;;
15474;SDS011;7839;50.462;9.678;2023-03-01T04:54:19;1.30;;;1.20;;
15474;SDS011;7839;50.462;9.678;2023-03-01T05:00:59;1.30;;;1.20;;
15474;SDS011;7839;50.462;9.678;2023-03-01T05:07:39;5.57;;;4.47;;
15474;SDS011;7839;50.462;9.678;2023-03-01T05:14:20;1.73;;;1.63;;
15474;SDS011;7839;50.462;9.678;2023-03-01T05:21:07;1.27;;;1.20;;
15474;SDS011;7839;50.462;9.678;2023-03-01T05:27:48;1.40;;;1.30;;
15474;SDS011;7839;50.462;9.678;2023-03-01T05:34:29;1.23;;;1.17;;
15474;SDS011;7839;50.462;9.678;2023-03-01T05:41:13;1.27;;;1.17;;
15474;SDS011;7839;50.462;9.678;2023-03-01T05:47:54;1.20;;;1.10;;
15474;SDS011;7839;50.462;9.678;2023-03-01T05:54:34;1.30;;;1.00;;
15474;SDS011;7839;50.462;9.678;2023-03-01T06:01:16;0.90;;;0.90;;
15474;SDS011;7839;50.462;9.678;2023-03-01T06:07:58;0.73;;;0.73;;
15474;SDS011;7839;50.462;9.678;2023-03-01T06:14:39;1.33;;;1.23;;
15474;SDS011;7839;50.462;9.678;2023-03-01T06:21:19;12.03;;;9.17;;
15474;SDS011;7839;50.462;9.678;2023-03-01T06:27:59;8.87;;;8.00;;
15474;SDS011;7839;50.462;9.678;2023-03-01T06:34:41;14.10;;;9.93;;
15474;SDS011;7839;50.462;9.678;2023-03-01T06:41:21;11.87;;;10.50;;
15474;SDS011;7839;50.462;9.678;2023-03-01T06:48:03;3.03;;;2.70;;
15474;SDS011;7839;50.462;9.678;2023-03-01T06:54:43;4.33;;;3.93;;
15474;SDS011;7839;50.462;9.678;2023-03-01T07:01:25;2.50;;;2.30;;
15474;SDS011;7839;50.462;9.678;2023-03-01T07:08:05;2.57;;;2.37;;
15474;SDS011;7839;50.462;9.678;2023-03-01T07:14:46;7.97;;;7.07;;
15474;SDS011;7839;50.462;9.678;2023-03-01T07:21:26;12.70;;;10.97;;
15474;SDS011;7839;50.462;9.678;2023-03-01T07:28:07;15.20;;;11.17;;
15474;SDS011;7839;50.462;9.678;2023-03-01T07:34:47;3.00;;;2.60;;
15474;SDS011;7839;50.462;9.678;2023-03-01T07:41:27;16.37;;;12.00;;
15474;SDS011;7839;50.462;9.678;2023-03-01T07:48:10;3.97;;;3.13;;
15474;SDS011;7839;50.462;9.678;2023-03-01T07:54:50;19.87;;;13.33;;
15474;SDS011;7839;50.462;9.678;2023-03-01T08:01:30;15.20;;;12.87;;
15474;SDS011;7839;50.462;9.678;2023-03-01T08:08:10;17.10;;;12.63;;
15474;SDS011;7839;50.462;9.678;2023-03-01T08:14:51;18.33;;;12.80;;
15474;SDS011;7839;50.462;9.678;2023-03-01T08:21:31;17.60;;;13.52;;
15474;SDS011;7839;50.462;9.678;2023-03-01T08:28:12;21.57;;;13.47;;
15474;SDS011;7839;50.462;9.678;2023-03-01T08:34:52;18.70;;;13.63;;
15474;SDS011;7839;50.462;9.678;2023-03-01T08:41:32;21.50;;;14.03;;
15474;SDS011;7839;50.462;9.678;2023-03-01T08:48:12;19.03;;;13.53;;
15474;SDS011;7839;50.462;9.678;2023-03-01T08:54:53;17.97;;;12.73;;
15474;SDS011;7839;50.462;9.678;2023-03-01T09:01:33;16.98;;;13.18;;
15474;SDS011;7839;50.462;9.678;2023-03-01T09:08:14;16.17;;;11.63;;
15474;SDS011;7839;50.462;9.678;2023-03-01T09:14:54;16.40;;;11.75;;
15474;SDS011;7839;50.462;9.678;2023-03-01T09:21:34;18.83;;;11.17;;
15474;SDS011;7839;50.462;9.678;2023-03-01T09:28:14;19.10;;;10.67;;
15474;SDS011;7839;50.462;9.678;2023-03-01T09:34:54;12.53;;;9.97;;
15474;SDS011;7839;50.462;9.678;2023-03-01T09:48:23;15.83;;;11.77;;
15474;SDS011;7839;50.462;9.678;2023-03-01T09:55:13;13.77;;;9.53;;
15474;SDS011;7839;50.462;9.678;2023-03-01T10:02:21;13.20;;;9.40;;
15474;SDS011;7839;50.462;9.678;2023-03-01T10:09:02;15.73;;;11.00;;
15474;SDS011;7839;50.462;9.678;2023-03-01T10:15:48;11.43;;;9.33;;
15474;SDS011;7839;50.462;9.678;2023-03-01T10:22:29;11.67;;;9.83;;
15474;SDS011;7839;50.462;9.678;2023-03-01T10:29:12;12.50;;;9.47;;
15474;SDS011;7839;50.462;9.678;2023-03-01T10:35:53;13.83;;;10.40;;
15474;SDS011;7839;50.462;9.678;2023-03-01T10:42:35;13.83;;;10.63;;
15474;SDS011;7839;50.462;9.678;2023-03-01T10:49:20;14.50;;;10.60;;
15474;SDS011;7839;50.462;9.678;2023-03-01T11:02:41;12.80;;;10.20;;
15474;SDS011;7839;50.462;9.678;2023-03-01T11:09:22;16.27;;;10.07;;
15474;SDS011;7839;50.462;9.678;2023-03-01T11:16:03;13.37;;;10.53;;
15474;SDS011;7839;50.462;9.678;2023-03-01T11:29:42;13.73;;;9.60;;
15474;SDS011;7839;50.462;9.678;2023-03-01T11:56:43;14.03;;;9.37;;
15474;SDS011;7839;50.462;9.678;2023-03-01T12:03:47;13.10;;;9.13;;
15474;SDS011;7839;50.462;9.678;2023-03-01T12:10:41;9.77;;;8.77;;
15474;SDS011;7839;50.462;9.678;2023-03-01T12:31:17;12.63;;;9.27;;
15474;SDS011;7839;50.462;9.678;2023-03-01T12:38:15;12.83;;;10.20;;
15474;SDS011;7839;50.462;9.678;2023-03-01T12:52:32;17.40;;;10.17;;
15474;SDS011;7839;50.462;9.678;2023-03-01T13:06:39;10.57;;;8.90;;
15474;SDS011;7839;50.462;9.678;2023-03-01T13:13:21;10.83;;;9.27;;
15474;SDS011;7839;50.462;9.678;2023-03-01T13:20:10;12.07;;;10.37;;
15474;SDS011;7839;50.462;9.678;2023-03-01T13:33:52;11.43;;;9.77;;
15474;SDS011;7839;50.462;9.678;2023-03-01T13:47:17;10.57;;;8.97;;
15474;SDS011;7839;50.462;9.678;2023-03-01T13:53:59;12.00;;;9.87;;
15474;SDS011;7839;50.462;9.678;2023-03-01T14:00:40;12.37;;;10.50;;
15474;SDS011;7839;50.462;9.678;2023-03-01T14:07:21;13.73;;;11.37;;
15474;SDS011;7839;50.462;9.678;2023-03-01T14:20:49;14.37;;;10.47;;
15474;SDS011;7839;50.462;9.678;2023-03-01T14:27:36;13.13;;;10.40;;
15474;SDS011;7839;50.462;9.678;2023-03-01T14:34:22;13.07;;;9.90;;
15474;SDS011;7839;50.462;9.678;2023-03-01T14:41:07;13.27;;;10.90;;
15474;SDS011;7839;50.462;9.678;2023-03-01T14:47:49;13.00;;;10.53;;
15474;SDS011;7839;50.462;9.678;2023-03-01T14:54:38;13.80;;;10.13;;
15474;SDS011;7839;50.462;9.678;2023-03-01T15:01:20;14.80;;;11.13;;
15474;SDS011;7839;50.462;9.678;2023-03-01T15:08:01;14.37;;;9.80;;
15474;SDS011;7839;50.462;9.678;2023-03-01T15:14:42;12.90;;;10.00;;
15474;SDS011;7839;50.462;9.678;2023-03-01T15:21:23;11.70;;;10.23;;
15474;SDS011;7839;50.462;9.678;2023-03-01T15:28:04;12.27;;;9.50;;
15474;SDS011;7839;50.462;9.678;2023-03-01T15:34:44;13.83;;;10.27;;
15474;SDS011;7839;50.462;9.678;2023-03-01T15:41:58;14.07;;;10.03;;
15474;SDS011;7839;50.462;9.678;2023-03-01T15:48:31;12.97;;;10.03;;
15474;SDS011;7839;50.462;9.678;2023-03-01T15:55:30;12.53;;;10.33;;
15474;SDS011;7839;50.462;9.678;2023-03-01T16:02:12;13.10;;;10.33;;
15474;SDS011;7839;50.462;9.678;2023-03-01T16:08:53;14.60;;;9.27;;
15474;SDS011;7839;50.462;9.678;2023-03-01T16:15:33;11.90;;;9.97;;
15474;SDS011;7839;50.462;9.678;2023-03-01T16:22:15;14.80;;;8.97;;
15474;SDS011;7839;50.462;9.678;2023-03-01T16:28:55;12.35;;;9.02;;
15474;SDS011;7839;50.462;9.678;2023-03-01T16:35:39;14.47;;;9.10;;
15474;SDS011;7839;50.462;9.678;2023-03-01T16:42:19;11.03;;;8.97;;
15474;SDS011;7839;50.462;9.678;2023-03-01T16:48:59;12.18;;;10.02;;
15474;SDS011;7839;50.462;9.678;2023-03-01T16:55:40;12.97;;;9.63;;
15474;SDS011;7839;50.462;9.678;2023-03-01T17:02:26;13.27;;;9.63;;
15474;SDS011;7839;50.462;9.678;2023-03-01T17:09:07;13.43;;;9.27;;
15474;SDS011;7839;50.462;9.678;2023-03-01T17:15:47;13.75;;;9.57;;
15474;SDS011;7839;50.462;9.678;2023-03-01T17:22:27;13.60;;;9.67;;
15474;SDS011;7839;50.462;9.678;2023-03-01T17:29:07;12.73;;;9.30;;
15474;SDS011;7839;50.462;9.678;2023-03-01T17:35:49;12.43;;;9.20;;
15474;SDS011;7839;50.462;9.678;2023-03-01T17:42:29;12.10;;;8.97;;
15474;SDS011;7839;50.462;9.678;2023-03-01T17:49:09;13.30;;;9.77;;
15474;SDS011;7839;50.462;9.678;2023-03-01T17:55:57;14.63;;;9.90;;
15474;SDS011;7839;50.462;9.678;2023-03-01T18:02:38;15.63;;;11.23;;
15474;SDS011;7839;50.462;9.678;2023-03-01T18:09:18;15.15;;;10.30;;
15474;SDS011;7839;50.462;9.678;2023-03-01T18:15:58;9.45;;;6.35;;
15474;SDS011;7839;50.462;9.678;2023-03-01T18:22:41;13.80;;;7.90;;
15474;SDS011;7839;50.462;9.678;2023-03-01T18:29:21;12.57;;;9.60;;
15474;SDS011;7839;50.462;9.678;2023-03-01T18:36:03;7.70;;;6.03;;
15474;SDS011;7839;50.462;9.678;2023-03-01T18:42:43;10.73;;;8.37;;
15474;SDS011;7839;50.462;9.678;2023-03-01T18:49:24;16.63;;;12.03;;
15474;SDS011;7839;50.462;9.678;2023-03-01T18:56:05;15.23;;;11.80;;
15474;SDS011;7839;50.462;9.678;2023-03-01T19:02:47;16.33;;;11.37;;
15474;SDS011;7839;50.462;9.678;2023-03-01T19:09:27;15.37;;;11.60;;
15474;SDS011;7839;50.462;9.678;2023-03-01T19:16:15;15.83;;;11.23;;
15474;SDS011;7839;50.462;9.678;2023-03-01T19:22:56;10.37;;;7.57;;
15474;SDS011;7839;50.462;9.678;2023-03-01T19:29:37;14.57;;;10.90;;
15474;SDS011;7839;50.462;9.678;2023-03-01T19:36:17;11.30;;;9.37;;
15474;SDS011;7839;50.462;9.678;2023-03-01T19:42:58;15.20;;;10.80;;
15474;SDS011;7839;50.462;9.678;2023-03-01T19:49:38;14.33;;;10.90;;
15474;SDS011;7839;50.462;9.678;2023-03-01T19:56:20;14.40;;;10.23;;
15474;SDS011;7839;50.462;9.678;2023-03-01T20:03:01;14.27;;;11.23;;
15474;SDS011;7839;50.462;9.678;2023-03-01T20:09:41;14.25;;;10.30;;
15474;SDS011;7839;50.462;9.678;2023-03-01T20:16:22;15.57;;;10.27;;
15474;SDS011;7839;50.462;9.678;2023-03-01T20:23:04;16.20;;;9.80;;
15474;SDS011;7839;50.462;9.678;2023-03-01T20:29:44;6.90;;;4.78;;
15474;SDS011;7839;50.462;9.678;2023-03-01T20:36:25;5.10;;;4.53;;
15474;SDS011;7839;50.462;9.678;2023-03-01T20:43:06;5.10;;;4.50;;
15474;SDS011;7839;50.462;9.678;2023-03-01T20:49:48;4.47;;;3.83;;
15474;SDS011;7839;50.462;9.678;2023-03-01T20:56:31;4.13;;;3.70;;
15474;SDS011;7839;50.462;9.678;2023-03-01T21:03:11;4.20;;;3.67;;
15474;SDS011;7839;50.462;9.678;2023-03-01T21:09:51;3.88;;;3.35;;
15474;SDS011;7839;50.462;9.678;2023-03-01T21:16:32;3.60;;;3.10;;
15474;SDS011;7839;50.462;9.678;2023-03-01T21:23:14;3.90;;;3.50;;
15474;SDS011;7839;50.462;9.678;2023-03-01T21:29:54;3.40;;;3.10;;
15474;SDS011;7839;50.462;9.678;2023-03-01T21:36:34;3.27;;;2.97;;
15474;SDS011;7839;50.462;9.678;2023-03-01T21:43:15;3.60;;;3.20;;
15474;SDS011;7839;50.462;9.678;2023-03-01T21:49:55;2.80;;;2.53;;
15474;SDS011;7839;50.462;9.678;2023-03-01T21:56:36;2.70;;;2.50;;
15474;SDS011;7839;50.462;9.678;2023-03-01T22:03:17;2.70;;;2.50;;
15474;SDS011;7839;50.462;9.678;2023-03-01T22:09:58;2.80;;;2.40;;
15474;SDS011;7839;50.462;9.678;2023-03-01T22:16:39;3.17;;;2.53;;
15474;SDS011;7839;50.462;9.678;2023-03-01T22:23:20;2.40;;;2.20;;
15474;SDS011;7839;50.462;9.678;2023-03-01T22:30:02;10.43;;;8.07;;
15474;SDS011;7839;50.462;9.678;2023-03-01T22:36:43;5.70;;;5.10;;
15474;SDS011;7839;50.462;9.678;2023-03-01T22:43:24;2.70;;;2.43;;
15474;SDS011;7839;50.462;9.678;2023-03-01T22:50:05;2.20;;;2.00;;
15474;SDS011;7839;50.462;9.678;2023-03-01T22:56:46;1.90;;;1.80;;
15474;SDS011;7839;50.462;9.678;2023-03-01T23:03:27;2.20;;;2.00;;
15474;SDS011;7839;50.462;9.678;2023-03-01T23:10:07;3.17;;;1.63;;
15474;SDS011;7839;50.462;9.678;2023-03-01T23:16:48;2.03;;;1.70;;
15474;SDS011;7839;50.462;9.678;2023-03-01T23:23:29;1.50;;;1.40;;
15474;SDS011;7839;50.462;9.678;2023-03-01T23:30:09;1.70;;;1.30;;
15474;SDS011;7839;50.462;9.678;2023-03-01T23:36:51;1.53;;;1.40;;
15474;SDS011;7839;50.462;9.678;2023-03-01T23:43:32;1.60;;;1.50;;
15474;SDS011;7839;50.462;9.678;2023-03-01T23:50:12;10.17;;;8.53;;
15474;SDS011;7839;50.462;9.678;2023-03-01T23:56:52;1.77;;;1.67;;
